createdAt,value
2022-12-23T00:00:40.162Z,100051.69
2022-12-23T00:01:27.951Z,100049.13
2022-12-23T00:02:15.036Z,100043.94
2022-12-23T00:03:01.944Z,100047.38
2022-12-23T00:03:48.917Z,100050.00
2022-12-23T00:04:37.133Z,100045.66
2022-12-23T00:05:24.496Z,100050.00
2022-12-23T00:06:14.028Z,100051.75
2022-12-23T00:07:00.645Z,100049.97
2022-12-23T00:07:47.375Z,100045.63
2022-12-23T00:08:37.284Z,100051.69
2022-12-23T00:09:23.971Z,100062.97
2022-12-23T00:10:11.368Z,100061.22
2022-12-23T00:10:58.420Z,100068.16
2022-12-23T00:12:03.694Z,100053.50
2022-12-23T00:13:09.183Z,100059.53
2022-12-23T00:14:20.593Z,100068.22
2022-12-23T00:15:09.323Z,100070.75
2022-12-23T00:16:22.413Z,100067.31
2022-12-23T00:17:22.112Z,100065.63
2022-12-23T00:18:09.849Z,100069.97
2022-12-23T00:18:57.193Z,100062.19
2022-12-23T00:19:43.865Z,100065.63
2022-12-23T00:20:30.685Z,100063.91
2022-12-23T00:21:17.819Z,100057.84
2022-12-23T00:22:04.348Z,100058.75
2022-12-23T00:23:05.854Z,100071.72
2022-12-23T00:23:52.673Z,100057.03
2022-12-23T00:24:39.231Z,100062.25
2022-12-23T00:25:41.709Z,100059.66
2022-12-23T00:26:28.898Z,100064.00
2022-12-23T00:27:17.096Z,100065.78
2022-12-23T00:28:03.835Z,100062.28
2022-12-23T00:28:55.416Z,100068.38
2022-12-23T00:29:42.297Z,100074.44
2022-12-23T00:30:29.052Z,100072.75
2022-12-23T00:31:18.686Z,100065.84
2022-12-23T00:32:05.467Z,100073.59
2022-12-23T00:32:52.024Z,100067.59
2022-12-23T00:33:44.157Z,100083.19
2022-12-23T00:34:31.032Z,100076.25
2022-12-23T00:35:17.860Z,100071.13
2022-12-23T00:36:19.662Z,100071.97
2022-12-23T00:37:06.473Z,100071.94
2022-12-23T00:37:53.258Z,100072.81
2022-12-23T00:38:59.271Z,100070.19
2022-12-23T00:40:06.901Z,100073.63
2022-12-23T00:41:12.325Z,100072.75
2022-12-23T00:42:20.431Z,100086.59
2022-12-23T00:43:06.994Z,100082.31
2022-12-23T00:43:53.505Z,100077.06
2022-12-23T00:44:40.111Z,100085.72
2022-12-23T00:45:27.094Z,100071.81
2022-12-23T00:46:13.720Z,100071.81
2022-12-23T00:47:00.259Z,100075.31
2022-12-23T00:48:06.788Z,100075.31
2022-12-23T00:49:12.265Z,100074.44
2022-12-23T00:49:59.811Z,100074.47
2022-12-23T00:50:48.159Z,100081.34
2022-12-23T00:51:34.927Z,100075.31
2022-12-23T00:52:21.729Z,100073.56
2022-12-23T00:53:08.299Z,100080.44
2022-12-23T00:53:57.490Z,100084.78
2022-12-23T00:54:44.224Z,100083.09
2022-12-23T00:55:31.511Z,100081.31
2022-12-23T00:56:18.344Z,100081.31
2022-12-23T00:57:05.139Z,100073.50
2022-12-23T00:57:54.353Z,100083.94
2022-12-23T00:58:40.843Z,100088.28
2022-12-23T00:59:27.656Z,100082.22
2022-12-23T01:00:18.074Z,100076.16
2022-12-23T01:01:23.417Z,100084.78
2022-12-23T01:02:30.651Z,100090.88
2022-12-23T01:03:36.112Z,100098.69
2022-12-23T01:04:44.778Z,100093.50
2022-12-23T01:05:37.159Z,100089.19
2022-12-23T01:06:23.663Z,100094.34
2022-12-23T01:07:10.541Z,100094.38
2022-12-23T01:07:57.328Z,100096.91
2022-12-23T01:08:44.062Z,100093.47
2022-12-23T01:09:30.854Z,100102.13
2022-12-23T01:10:17.475Z,100096.06
2022-12-23T01:11:09.372Z,100099.56
2022-12-23T01:11:56.126Z,100094.41
2022-12-23T01:12:42.645Z,100101.31
2022-12-23T01:13:29.301Z,100099.59
2022-12-23T01:14:17.515Z,100097.03
2022-12-23T01:15:04.467Z,100103.94
2022-12-23T01:15:51.146Z,100101.34
2022-12-23T01:16:39.030Z,100105.69
2022-12-23T01:17:25.789Z,100109.13
2022-12-23T01:18:13.538Z,100116.06
2022-12-23T01:19:00.271Z,100112.63
2022-12-23T01:19:47.251Z,100108.28
2022-12-23T01:20:34.002Z,100114.38
2022-12-23T01:21:20.896Z,100113.53
2022-12-23T01:22:07.398Z,100114.38
2022-12-23T01:22:54.241Z,100108.28
2022-12-23T01:23:41.086Z,100117.81
2022-12-23T01:24:30.043Z,100114.38
2022-12-23T01:25:18.258Z,100116.06
2022-12-23T01:26:10.960Z,100119.56
2022-12-23T01:26:58.392Z,100111.72
2022-12-23T01:27:45.231Z,100114.31
2022-12-23T01:28:34.131Z,100118.66
2022-12-23T01:29:20.956Z,100123.00
2022-12-23T01:30:08.542Z,100129.03
2022-12-23T01:30:55.944Z,100121.25
2022-12-23T01:31:43.166Z,100124.69
2022-12-23T01:32:30.259Z,100122.06
2022-12-23T01:33:17.241Z,100122.06
2022-12-23T01:34:03.993Z,100122.91
2022-12-23T01:34:50.792Z,100118.59
2022-12-23T01:35:37.382Z,100121.16
2022-12-23T01:36:23.938Z,100115.97
2022-12-23T01:37:10.691Z,100121.25
2022-12-23T01:37:57.526Z,100116.91
2022-12-23T01:38:44.826Z,100117.75
2022-12-23T01:39:31.528Z,100122.00
2022-12-23T01:40:18.572Z,100118.56
2022-12-23T01:41:05.600Z,100121.97
2022-12-23T01:42:10.787Z,100109.81
2022-12-23T01:42:57.359Z,100128.81
2022-12-23T01:43:45.934Z,100127.06
2022-12-23T01:44:53.648Z,100126.09
2022-12-23T01:45:40.204Z,100125.19
2022-12-23T01:46:27.010Z,100123.47
2022-12-23T01:47:17.973Z,100124.31
2022-12-23T01:48:09.963Z,100133.81
2022-12-23T01:48:57.669Z,100132.00
2022-12-23T01:49:44.502Z,100132.84
2022-12-23T01:50:55.386Z,100139.72
2022-12-23T01:51:42.990Z,100143.16
2022-12-23T01:52:34.343Z,100146.59
2022-12-23T01:53:28.593Z,100147.56
2022-12-23T01:54:15.606Z,100147.56
2022-12-23T01:55:02.589Z,100151.06
2022-12-23T01:55:59.321Z,100143.28
2022-12-23T01:56:46.311Z,100144.13
2022-12-23T01:57:35.941Z,100142.44
2022-12-23T01:58:36.044Z,100143.34
2022-12-23T01:59:45.933Z,100146.78
2022-12-23T02:00:51.135Z,100143.34
2022-12-23T02:01:56.552Z,100147.69
2022-12-23T02:03:02.928Z,100158.97
2022-12-23T02:03:55.398Z,100152.94
2022-12-23T02:04:43.439Z,100151.19
2022-12-23T02:05:30.713Z,100145.16
2022-12-23T02:06:42.711Z,100146.84
2022-12-23T02:07:48.183Z,100148.66
2022-12-23T02:08:53.623Z,100146.97
2022-12-23T02:09:40.642Z,100153.06
2022-12-23T02:10:40.767Z,100152.25
2022-12-23T02:11:49.183Z,100151.47
2022-12-23T02:13:14.597Z,100156.78
2022-12-23T02:14:40.936Z,100156.84
2022-12-23T02:16:18.102Z,100155.09
2022-12-23T02:17:35.917Z,100160.28
2022-12-23T02:18:41.513Z,100153.41
2022-12-23T02:20:10.121Z,100157.78
2022-12-23T02:21:12.367Z,100149.97
2022-12-23T02:22:17.934Z,100154.34
2022-12-23T02:23:33.574Z,100150.94
2022-12-23T02:24:46.472Z,100144.94
2022-12-23T02:26:15.163Z,100147.56
2022-12-23T02:27:30.646Z,100143.25
2022-12-23T02:28:55.787Z,100147.53
2022-12-23T02:30:03.360Z,100151.88
2022-12-23T02:31:25.075Z,100155.38
2022-12-23T02:32:26.826Z,100158.81
2022-12-23T02:33:39.887Z,100156.22
2022-12-23T02:34:52.645Z,100158.03
2022-12-23T02:36:00.868Z,100163.16
2022-12-23T02:36:55.187Z,100168.38
2022-12-23T02:37:54.388Z,100167.53
2022-12-23T02:38:54.858Z,100171.94
2022-12-23T02:39:59.651Z,100173.66
2022-12-23T02:40:58.264Z,100171.94
2022-12-23T02:42:15.298Z,100173.72
2022-12-23T02:43:34.143Z,100177.25
2022-12-23T02:44:25.917Z,100179.00
2022-12-23T02:45:30.935Z,100176.38
2022-12-23T02:46:36.852Z,100180.75
2022-12-23T02:47:48.243Z,100179.03
2022-12-23T02:49:02.091Z,100183.38
2022-12-23T02:49:58.833Z,100187.69
2022-12-23T02:50:49.052Z,100179.88
2022-12-23T02:51:44.435Z,100174.69
2022-12-23T02:52:34.716Z,100176.38
2022-12-23T02:53:33.380Z,100178.19
2022-12-23T02:54:31.095Z,100186.97
2022-12-23T02:55:32.505Z,100184.38
2022-12-23T02:56:23.448Z,100182.63
2022-12-23T02:57:14.153Z,100186.13
2022-12-23T02:58:06.028Z,100186.97
2022-12-23T02:59:15.110Z,100182.69
2022-12-23T03:00:03.527Z,100192.22
2022-12-23T03:00:54.761Z,100187.88
2022-12-23T03:01:44.919Z,100182.69
2022-12-23T03:02:40.500Z,100184.50
2022-12-23T03:03:28.473Z,100181.00
2022-12-23T03:04:15.884Z,100187.09
2022-12-23T03:05:02.770Z,100184.50
2022-12-23T03:05:51.623Z,100184.50
2022-12-23T03:06:46.278Z,100187.09
2022-12-23T03:07:35.685Z,100190.53
2022-12-23T03:08:42.561Z,100196.56
2022-12-23T03:09:51.624Z,100194.81
2022-12-23T03:11:09.827Z,100207.00
2022-12-23T03:12:10.514Z,100205.38
2022-12-23T03:13:10.173Z,100207.97
2022-12-23T03:13:59.092Z,100215.84
2022-12-23T03:15:03.776Z,100205.53
2022-12-23T03:16:08.624Z,100209.88
2022-12-23T03:17:30.503Z,100211.63
2022-12-23T03:18:41.307Z,100218.59
2022-12-23T03:19:40.034Z,100218.63
2022-12-23T03:20:29.679Z,100225.56
2022-12-23T03:21:31.827Z,100215.09
2022-12-23T03:22:34.377Z,100226.50
2022-12-23T03:23:34.695Z,100225.59
2022-12-23T03:24:46.563Z,100229.06
2022-12-23T03:25:42.736Z,100233.34
2022-12-23T03:26:53.286Z,100240.28
2022-12-23T03:27:52.053Z,100237.69
2022-12-23T03:29:01.732Z,100237.69
2022-12-23T03:29:54.239Z,100239.66
2022-12-23T03:30:47.463Z,100226.63
2022-12-23T03:31:38.024Z,100238.81
2022-12-23T03:32:29.513Z,100232.72
